Perseverance — WDD5594 — position and weather

sailwx.info

Track history (hours):
 
Tides and Currents Weather Stations Pressure Air Temp Water Temp Dewpoint Dewpoint Depression Visibility Wind Speed Wind Dir Waves Ship Positions

Perseverance

Owner: Cooper, Mark E, Toledo, OR. More information available from US FCC via Universal Licensing System and Coast Guard Vessel Documentation Center.

Last reported at 2017-Sep-22 02:00 UTC. Time now 2017-Sep-23 07:32 UTC.
Position N 46°47' W 124°27'.

Type: Fishing. MMSI: 367618000.

Date/timePositionNaut miles runAvg speedWind from/ knotsBaromVisibWave heightAir tempDewpointWater temp
2017-Sep-22 02:00N 46°47' W 124°27'4 8.0
2017-Sep-22 01:30N 46°43' W 124°24'4 7.9
2017-Sep-22 01:00N 46°39' W 124°22'4 7.9
2017-Sep-22 00:30N 46°36' W 124°20'4 8.3
2017-Sep-22 00:00N 46°32' W 124°18'4 7.9
2017-Sep-21 23:30N 46°28' W 124°15'4 8.2
2017-Sep-21 23:00N 46°24' W 124°13'4 8.1
2017-Sep-21 22:30N 46°21' W 124°11'3 5.5
2017-Sep-21 22:00N 46°18' W 124°11'3 5.8
2017-Sep-21 21:30N 46°15' W 124°09'4 8.9
2017-Sep-21 21:00N 46°15' W 124°02'4 7.5
2017-Sep-21 20:30N 46°13' W 123°58'4 7.5
2017-Sep-21 20:00N 46°12' W 123°53'1 1.6
2017-Sep-21 19:30N 46°11' W 123°52'0 0.0
2017-Sep-21 19:00N 46°11' W 123°52'0 0.0
2017-Sep-21 18:01N 46°11' W 123°52'0 5.0
2017-Sep-21 18:00N 46°11' W 123°52'0 0.1
2017-Sep-21 17:30N 46°11' W 123°52'0 0.0
2017-Sep-21 17:00N 46°11' W 123°52'0 0.0
2017-Sep-21 16:30N 46°11' W 123°52'0 0.0
2017-Sep-21 16:00N 46°11' W 123°52'0 0.0
2017-Sep-21 15:30N 46°11' W 123°52'0 0.0
2017-Sep-21 15:00N 46°11' W 123°52'0 0.0
2017-Sep-21 14:30N 46°11' W 123°52'0 0.0
2017-Sep-21 14:00N 46°11' W 123°52'0 0.0
2017-Sep-21 13:31N 46°11' W 123°52'0 0.1
2017-Sep-21 13:00N 46°11' W 123°52'0 0.1
2017-Sep-21 12:30N 46°11' W 123°52'0 0.0
2017-Sep-21 12:00N 46°11' W 123°52'0 0.0
2017-Sep-21 11:30N 46°11' W 123°52'0 0.1
2017-Sep-21 11:00N 46°11' W 123°52'3 5.7
2017-Sep-21 10:30N 46°12' W 123°56'4 8.7
2017-Sep-21 10:00N 46°15' W 124°01'5 9.0
2017-Sep-21 09:30N 46°15' W 124°07'4 7.6
2017-Sep-21 09:00N 46°19' W 124°10'4 7.7
2017-Sep-21 08:30N 46°22' W 124°12'4 7.9
2017-Sep-21 08:00N 46°26' W 124°14'4 8.0
2017-Sep-21 07:30N 46°30' W 124°17'4 7.3
2017-Sep-21 07:00N 46°33' W 124°19'4 7.6
2017-Sep-21 06:30N 46°36' W 124°21'4 8.1
2017-Sep-21 06:00N 46°40' W 124°23'4 8.1
2017-Sep-21 05:30N 46°44' W 124°25'4 8.0
2017-Sep-21 05:00N 46°47' W 124°28'4 7.6
2017-Sep-21 04:30N 46°51' W 124°30'16 1.5
2017-Sep-20 17:26N 46°50' W 124°54'3 5.8
2017-Sep-20 17:00N 46°48' W 124°52'2 4.4
2017-Sep-20 16:31N 46°46' W 124°51'2 4.6
2017-Sep-20 16:00N 46°48' W 124°52'3 5.9
2017-Sep-20 15:25N 46°51' W 124°54'2 4.6
2017-Sep-20 14:54N 46°49' W 124°53'6 5.8
2017-Sep-20 13:58N 46°44' W 124°49'1 2.7
2017-Sep-20 13:30N 46°43' W 124°49'2 4.9
2017-Sep-20 13:00N 46°41' W 124°47'2 4.9
2017-Sep-20 12:30N 46°39' W 124°45'2 4.9
2017-Sep-20 12:01N 46°37' W 124°42'3 5.1
2017-Sep-20 11:30N 46°35' W 124°39'3 5.3
2017-Sep-20 11:00N 46°34' W 124°36'3 5.3
2017-Sep-20 10:30N 46°32' W 124°34'3 5.3
2017-Sep-20 10:00N 46°30' W 124°31'3 5.4
2017-Sep-20 09:30N 46°28' W 124°28'3 5.7
2017-Sep-20 09:00N 46°26' W 124°25'3 5.6
2017-Sep-20 08:31N 46°25' W 124°22'3 5.3
2017-Sep-20 08:00N 46°23' W 124°19'3 6.9
2017-Sep-20 07:30N 46°21' W 124°15'4 7.1
2017-Sep-20 07:00N 46°18' W 124°11'3 6.8
2017-Sep-20 06:30N 46°16' W 124°08'4 7.6
2017-Sep-20 06:00N 46°15' W 124°02'3 7.0
2017-Sep-20 05:30N 46°13' W 123°58'4 7.8
2017-Sep-20 05:00N 46°12' W 123°53'1 2.0
2017-Sep-20 04:30N 46°11' W 123°52'0 0.0
2017-Sep-20 04:00N 46°11' W 123°52'0 0.0
2017-Sep-20 03:31N 46°11' W 123°52'0 0.0
2017-Sep-20 03:00N 46°11' W 123°52'0 0.0
2017-Sep-20 02:30N 46°11' W 123°52'0 0.0
2017-Sep-20 02:00N 46°11' W 123°52'0 0.0
2017-Sep-20 01:31N 46°11' W 123°52'0 0.0
2017-Sep-20 01:00N 46°11' W 123°52'0 0.0
2017-Sep-20 00:30N 46°11' W 123°52'0 0.0
2017-Sep-20 00:01N 46°11' W 123°52'0 0.0
2017-Sep-19 23:30N 46°11' W 123°52'0 0.0
2017-Sep-19 23:00N 46°11' W 123°52'0 0.0
2017-Sep-19 22:31N 46°11' W 123°52'0 0.0
2017-Sep-19 22:00N 46°11' W 123°52'0 0.0
2017-Sep-19 21:30N 46°11' W 123°52'0 0.0
2017-Sep-19 21:00N 46°11' W 123°52'0 0.0
2017-Sep-19 20:30N 46°11' W 123°52'0 0.0
2017-Sep-19 20:01N 46°11' W 123°52'0 0.0
2017-Sep-19 19:31N 46°11' W 123°52'0 0.0
2017-Sep-19 19:00N 46°11' W 123°52'0 0.0
2017-Sep-19 18:30N 46°11' W 123°52'0 0.0
2017-Sep-19 18:00N 46°11' W 123°52'0 0.0
2017-Sep-19 17:31N 46°11' W 123°52'0 0.0
2017-Sep-19 17:00N 46°11' W 123°52'0 0.0
2017-Sep-19 16:30N 46°11' W 123°52'0 0.0
2017-Sep-19 16:00N 46°11' W 123°52'0 0.0
2017-Sep-19 15:30N 46°11' W 123°52'0 0.0
2017-Sep-19 15:00N 46°11' W 123°52'0 0.0
2017-Sep-19 14:30N 46°11' W 123°52'0 0.0
2017-Sep-19 14:00N 46°11' W 123°52'0 0.0
2017-Sep-19 13:30N 46°11' W 123°52'  
2017-Sep-16 04:49N 46°45' W 124°26'12 0.3
2017-Sep-14 08:01N 46°33' W 124°30'1 5.4
2017-Sep-14 07:54N 46°33' W 124°30'2 5.4
2017-Sep-14 07:29N 46°31' W 124°28'3 5.5
2017-Sep-14 06:59N 46°29' W 124°26'3 5.5
2017-Sep-14 06:29N 46°27' W 124°23'3 5.5
2017-Sep-14 06:00N 46°25' W 124°21'3 5.2
2017-Sep-14 05:30N 46°23' W 124°18'3 5.0
2017-Sep-14 05:00N 46°21' W 124°16'3 5.9
2017-Sep-14 04:30N 46°19' W 124°13'3 6.8
2017-Sep-14 04:00N 46°16' W 124°09'5 9.3
2017-Sep-14 03:30N 46°15' W 124°03'510.3
2017-Sep-14 03:00N 46°12' W 123°56'3 6.7
2017-Sep-14 02:30N 46°11' W 123°52'0 0.0
2017-Sep-14 02:00N 46°11' W 123°52'0 0.0
2017-Sep-14 01:30N 46°11' W 123°52'0 0.0
2017-Sep-14 01:00N 46°11' W 123°52'0 0.0
2017-Sep-14 00:30N 46°11' W 123°52'0 0.0
2017-Sep-14 00:00N 46°11' W 123°52'0 0.0
2017-Sep-13 23:30N 46°11' W 123°52'0 0.1
2017-Sep-13 23:00N 46°11' W 123°52'0 0.1
2017-Sep-13 22:30N 46°11' W 123°52'2 4.3
2017-Sep-13 22:00N 46°12' W 123°55'4 8.8
2017-Sep-13 21:30N 46°14' W 123°60'4 8.0
2017-Sep-13 21:00N 46°15' W 124°05'4 7.5
2017-Sep-13 20:29N 46°18' W 124°10'4 8.8
2017-Sep-13 20:00N 46°21' W 124°14'4 8.4
2017-Sep-13 19:30N 46°24' W 124°18'4 8.6
2017-Sep-13 19:00N 46°27' W 124°22'10 8.3
2017-Sep-13 17:45N 46°35' W 124°33'2 0.5
2017-Sep-13 13:32N 46°34' W 124°30'0 5.1
2017-Sep-13 13:30N 46°33' W 124°30'3 4.7
2017-Sep-13 12:56N 46°31' W 124°30'5 5.5
2017-Sep-13 12:00N 46°27' W 124°25'3 6.2
2017-Sep-13 11:30N 46°25' W 124°22'3 6.0
2017-Sep-13 11:00N 46°23' W 124°19'3 6.1
2017-Sep-13 10:30N 46°21' W 124°16'3 6.3
2017-Sep-13 10:00N 46°19' W 124°12'3 6.4
2017-Sep-13 09:30N 46°16' W 124°09'4 8.7
2017-Sep-13 09:00N 46°15' W 124°03'611.3
2017-Sep-13 08:30N 46°12' W 123°56'3 6.3
2017-Sep-13 08:00N 46°11' W 123°52'0 0.0
2017-Sep-13 07:30N 46°11' W 123°52'0 0.0
2017-Sep-13 07:00N 46°11' W 123°52'0 0.0
2017-Sep-13 06:30N 46°11' W 123°52'0 0.1
2017-Sep-13 06:00N 46°11' W 123°52'0 0.1
2017-Sep-13 05:30N 46°11' W 123°52'0 0.0
2017-Sep-13 05:00N 46°11' W 123°52'0 0.0
2017-Sep-13 04:30N 46°11' W 123°52'0 0.3
2017-Sep-13 04:00N 46°11' W 123°52'1 2.1
2017-Sep-13 03:30N 46°12' W 123°50'1 1.8
2017-Sep-13 03:00N 46°12' W 123°52'4 8.5
2017-Sep-13 02:30N 46°13' W 123°57'5 9.0
2017-Sep-13 02:00N 46°15' W 124°03'5 9.7
2017-Sep-13 01:30N 46°16' W 124°10'510.2
2017-Sep-13 01:00N 46°19' W 124°16'7 9.7
2017-Sep-13 00:15N 46°25' W 124°23'2 9.9
2017-Sep-13 00:00N 46°27' W 124°25'1 0.1
2017-Sep-12 12:50N 46°26' W 124°23'310.0
2017-Sep-12 12:30N 46°23' W 124°20'510.3
2017-Sep-12 12:00N 46°20' W 124°14'510.1
2017-Sep-12 11:30N 46°17' W 124°09'4 8.7
2017-Sep-12 11:00N 46°15' W 124°03'4 8.8
2017-Sep-12 10:30N 46°13' W 123°57'4 8.7
2017-Sep-12 10:00N 46°11' W 123°52'0 0.0
2017-Sep-12 09:30N 46°11' W 123°52'0 0.1
2017-Sep-12 09:00N 46°11' W 123°52'0 0.1
2017-Sep-12 08:30N 46°11' W 123°52'0 0.0
2017-Sep-12 08:00N 46°11' W 123°52'0 0.0
2017-Sep-12 07:30N 46°11' W 123°52'0 0.1
2017-Sep-12 07:00N 46°11' W 123°52'0 0.1
2017-Sep-12 06:30N 46°11' W 123°52'0 0.0
2017-Sep-12 06:00N 46°11' W 123°52'0 0.0
2017-Sep-12 05:30N 46°11' W 123°52'1 2.9
2017-Sep-12 05:01N 46°11' W 123°54'3 5.4
2017-Sep-12 04:30N 46°13' W 123°57'3 5.8
2017-Sep-12 04:01N 46°15' W 123°60'3 5.8
2017-Sep-12 03:30N 46°16' W 124°04'3 6.3
2017-Sep-12 03:00N 46°17' W 124°08'5 9.8
2017-Sep-12 02:30N 46°21' W 124°13'  
Track history (hours):
 
Tides and Currents Weather Stations Pressure Air Temp Water Temp Dewpoint Dewpoint Depression Visibility Wind Speed Wind Dir Waves Ship Positions

Perseverance

Owner: Cooper, Mark E, Toledo, OR. More information available from US FCC via Universal Licensing System and Coast Guard Vessel Documentation Center.

Last reported at 2017-Sep-22 02:00 UTC. Time now 2017-Sep-23 07:32 UTC.
Position N 46°47' W 124°27'.

Type: Fishing. MMSI: 367618000.

Date/timePositionNaut miles runAvg speedWind from/ knotsBaromVisibWave heightAir tempDewpointWater temp
2017-Sep-22 02:00N 46°47' W 124°27'4 8.0
2017-Sep-22 01:30N 46°43' W 124°24'4 7.9
2017-Sep-22 01:00N 46°39' W 124°22'4 7.9
2017-Sep-22 00:30N 46°36' W 124°20'4 8.3
2017-Sep-22 00:00N 46°32' W 124°18'4 7.9
2017-Sep-21 23:30N 46°28' W 124°15'4 8.2
2017-Sep-21 23:00N 46°24' W 124°13'4 8.1
2017-Sep-21 22:30N 46°21' W 124°11'3 5.5
2017-Sep-21 22:00N 46°18' W 124°11'3 5.8
2017-Sep-21 21:30N 46°15' W 124°09'4 8.9
2017-Sep-21 21:00N 46°15' W 124°02'4 7.5
2017-Sep-21 20:30N 46°13' W 123°58'4 7.5
2017-Sep-21 20:00N 46°12' W 123°53'1 1.6
2017-Sep-21 19:30N 46°11' W 123°52'0 0.0
2017-Sep-21 19:00N 46°11' W 123°52'0 0.0
2017-Sep-21 18:01N 46°11' W 123°52'0 5.0
2017-Sep-21 18:00N 46°11' W 123°52'0 0.1
2017-Sep-21 17:30N 46°11' W 123°52'0 0.0
2017-Sep-21 17:00N 46°11' W 123°52'0 0.0
2017-Sep-21 16:30N 46°11' W 123°52'0 0.0
2017-Sep-21 16:00N 46°11' W 123°52'0 0.0
2017-Sep-21 15:30N 46°11' W 123°52'0 0.0
2017-Sep-21 15:00N 46°11' W 123°52'0 0.0
2017-Sep-21 14:30N 46°11' W 123°52'0 0.0
2017-Sep-21 14:00N 46°11' W 123°52'0 0.0
2017-Sep-21 13:31N 46°11' W 123°52'0 0.1
2017-Sep-21 13:00N 46°11' W 123°52'0 0.1
2017-Sep-21 12:30N 46°11' W 123°52'0 0.0
2017-Sep-21 12:00N 46°11' W 123°52'0 0.0
2017-Sep-21 11:30N 46°11' W 123°52'0 0.1
2017-Sep-21 11:00N 46°11' W 123°52'3 5.7
2017-Sep-21 10:30N 46°12' W 123°56'4 8.7
2017-Sep-21 10:00N 46°15' W 124°01'5 9.0
2017-Sep-21 09:30N 46°15' W 124°07'4 7.6
2017-Sep-21 09:00N 46°19' W 124°10'4 7.7
2017-Sep-21 08:30N 46°22' W 124°12'4 7.9
2017-Sep-21 08:00N 46°26' W 124°14'4 8.0
2017-Sep-21 07:30N 46°30' W 124°17'4 7.3
2017-Sep-21 07:00N 46°33' W 124°19'4 7.6
2017-Sep-21 06:30N 46°36' W 124°21'4 8.1
2017-Sep-21 06:00N 46°40' W 124°23'4 8.1
2017-Sep-21 05:30N 46°44' W 124°25'4 8.0
2017-Sep-21 05:00N 46°47' W 124°28'4 7.6
2017-Sep-21 04:30N 46°51' W 124°30'16 1.5
2017-Sep-20 17:26N 46°50' W 124°54'3 5.8
2017-Sep-20 17:00N 46°48' W 124°52'2 4.4
2017-Sep-20 16:31N 46°46' W 124°51'2 4.6
2017-Sep-20 16:00N 46°48' W 124°52'3 5.9
2017-Sep-20 15:25N 46°51' W 124°54'2 4.6
2017-Sep-20 14:54N 46°49' W 124°53'6 5.8
2017-Sep-20 13:58N 46°44' W 124°49'1 2.7
2017-Sep-20 13:30N 46°43' W 124°49'2 4.9
2017-Sep-20 13:00N 46°41' W 124°47'2 4.9
2017-Sep-20 12:30N 46°39' W 124°45'2 4.9
2017-Sep-20 12:01N 46°37' W 124°42'3 5.1
2017-Sep-20 11:30N 46°35' W 124°39'3 5.3
2017-Sep-20 11:00N 46°34' W 124°36'3 5.3
2017-Sep-20 10:30N 46°32' W 124°34'3 5.3
2017-Sep-20 10:00N 46°30' W 124°31'3 5.4
2017-Sep-20 09:30N 46°28' W 124°28'3 5.7
2017-Sep-20 09:00N 46°26' W 124°25'3 5.6
2017-Sep-20 08:31N 46°25' W 124°22'3 5.3
2017-Sep-20 08:00N 46°23' W 124°19'3 6.9
2017-Sep-20 07:30N 46°21' W 124°15'4 7.1
2017-Sep-20 07:00N 46°18' W 124°11'3 6.8
2017-Sep-20 06:30N 46°16' W 124°08'4 7.6
2017-Sep-20 06:00N 46°15' W 124°02'3 7.0
2017-Sep-20 05:30N 46°13' W 123°58'4 7.8
2017-Sep-20 05:00N 46°12' W 123°53'1 2.0
2017-Sep-20 04:30N 46°11' W 123°52'0 0.0
2017-Sep-20 04:00N 46°11' W 123°52'0 0.0
2017-Sep-20 03:31N 46°11' W 123°52'0 0.0
2017-Sep-20 03:00N 46°11' W 123°52'0 0.0
2017-Sep-20 02:30N 46°11' W 123°52'0 0.0
2017-Sep-20 02:00N 46°11' W 123°52'0 0.0
2017-Sep-20 01:31N 46°11' W 123°52'0 0.0
2017-Sep-20 01:00N 46°11' W 123°52'0 0.0
2017-Sep-20 00:30N 46°11' W 123°52'0 0.0
2017-Sep-20 00:01N 46°11' W 123°52'0 0.0
2017-Sep-19 23:30N 46°11' W 123°52'0 0.0
2017-Sep-19 23:00N 46°11' W 123°52'0 0.0
2017-Sep-19 22:31N 46°11' W 123°52'0 0.0
2017-Sep-19 22:00N 46°11' W 123°52'0 0.0
2017-Sep-19 21:30N 46°11' W 123°52'0 0.0
2017-Sep-19 21:00N 46°11' W 123°52'0 0.0
2017-Sep-19 20:30N 46°11' W 123°52'0 0.0
2017-Sep-19 20:01N 46°11' W 123°52'0 0.0
2017-Sep-19 19:31N 46°11' W 123°52'0 0.0
2017-Sep-19 19:00N 46°11' W 123°52'0 0.0
2017-Sep-19 18:30N 46°11' W 123°52'0 0.0
2017-Sep-19 18:00N 46°11' W 123°52'0 0.0
2017-Sep-19 17:31N 46°11' W 123°52'0 0.0
2017-Sep-19 17:00N 46°11' W 123°52'0 0.0
2017-Sep-19 16:30N 46°11' W 123°52'0 0.0
2017-Sep-19 16:00N 46°11' W 123°52'0 0.0
2017-Sep-19 15:30N 46°11' W 123°52'0 0.0
2017-Sep-19 15:00N 46°11' W 123°52'0 0.0
2017-Sep-19 14:30N 46°11' W 123°52'0 0.0
2017-Sep-19 14:00N 46°11' W 123°52'0 0.0
2017-Sep-19 13:30N 46°11' W 123°52'  
2017-Sep-16 04:49N 46°45' W 124°26'12 0.3
2017-Sep-14 08:01N 46°33' W 124°30'1 5.4
2017-Sep-14 07:54N 46°33' W 124°30'2 5.4
2017-Sep-14 07:29N 46°31' W 124°28'3 5.5
2017-Sep-14 06:59N 46°29' W 124°26'3 5.5
2017-Sep-14 06:29N 46°27' W 124°23'3 5.5
2017-Sep-14 06:00N 46°25' W 124°21'3 5.2
2017-Sep-14 05:30N 46°23' W 124°18'3 5.0
2017-Sep-14 05:00N 46°21' W 124°16'3 5.9
2017-Sep-14 04:30N 46°19' W 124°13'3 6.8
2017-Sep-14 04:00N 46°16' W 124°09'5 9.3
2017-Sep-14 03:30N 46°15' W 124°03'510.3
2017-Sep-14 03:00N 46°12' W 123°56'3 6.7
2017-Sep-14 02:30N 46°11' W 123°52'0 0.0
2017-Sep-14 02:00N 46°11' W 123°52'0 0.0
2017-Sep-14 01:30N 46°11' W 123°52'0 0.0
2017-Sep-14 01:00N 46°11' W 123°52'0 0.0
2017-Sep-14 00:30N 46°11' W 123°52'0 0.0
2017-Sep-14 00:00N 46°11' W 123°52'0 0.0
2017-Sep-13 23:30N 46°11' W 123°52'0 0.1
2017-Sep-13 23:00N 46°11' W 123°52'0 0.1
2017-Sep-13 22:30N 46°11' W 123°52'2 4.3
2017-Sep-13 22:00N 46°12' W 123°55'4 8.8
2017-Sep-13 21:30N 46°14' W 123°60'4 8.0
2017-Sep-13 21:00N 46°15' W 124°05'4 7.5
2017-Sep-13 20:29N 46°18' W 124°10'4 8.8
2017-Sep-13 20:00N 46°21' W 124°14'4 8.4
2017-Sep-13 19:30N 46°24' W 124°18'4 8.6
2017-Sep-13 19:00N 46°27' W 124°22'10 8.3
2017-Sep-13 17:45N 46°35' W 124°33'2 0.5
2017-Sep-13 13:32N 46°34' W 124°30'0 5.1
2017-Sep-13 13:30N 46°33' W 124°30'3 4.7
2017-Sep-13 12:56N 46°31' W 124°30'5 5.5
2017-Sep-13 12:00N 46°27' W 124°25'3 6.2
2017-Sep-13 11:30N 46°25' W 124°22'3 6.0
2017-Sep-13 11:00N 46°23' W 124°19'3 6.1
2017-Sep-13 10:30N 46°21' W 124°16'3 6.3
2017-Sep-13 10:00N 46°19' W 124°12'3 6.4
2017-Sep-13 09:30N 46°16' W 124°09'4 8.7
2017-Sep-13 09:00N 46°15' W 124°03'611.3
2017-Sep-13 08:30N 46°12' W 123°56'3 6.3
2017-Sep-13 08:00N 46°11' W 123°52'0 0.0
2017-Sep-13 07:30N 46°11' W 123°52'0 0.0
2017-Sep-13 07:00N 46°11' W 123°52'0 0.0
2017-Sep-13 06:30N 46°11' W 123°52'0 0.1
2017-Sep-13 06:00N 46°11' W 123°52'0 0.1
2017-Sep-13 05:30N 46°11' W 123°52'0 0.0
2017-Sep-13 05:00N 46°11' W 123°52'0 0.0
2017-Sep-13 04:30N 46°11' W 123°52'0 0.3
2017-Sep-13 04:00N 46°11' W 123°52'1 2.1
2017-Sep-13 03:30N 46°12' W 123°50'1 1.8
2017-Sep-13 03:00N 46°12' W 123°52'4 8.5
2017-Sep-13 02:30N 46°13' W 123°57'5 9.0
2017-Sep-13 02:00N 46°15' W 124°03'5 9.7
2017-Sep-13 01:30N 46°16' W 124°10'510.2
2017-Sep-13 01:00N 46°19' W 124°16'7 9.7
2017-Sep-13 00:15N 46°25' W 124°23'2 9.9
2017-Sep-13 00:00N 46°27' W 124°25'1 0.1
2017-Sep-12 12:50N 46°26' W 124°23'310.0
2017-Sep-12 12:30N 46°23' W 124°20'510.3
2017-Sep-12 12:00N 46°20' W 124°14'510.1
2017-Sep-12 11:30N 46°17' W 124°09'4 8.7
2017-Sep-12 11:00N 46°15' W 124°03'4 8.8
2017-Sep-12 10:30N 46°13' W 123°57'4 8.7
2017-Sep-12 10:00N 46°11' W 123°52'0 0.0
2017-Sep-12 09:30N 46°11' W 123°52'0 0.1
2017-Sep-12 09:00N 46°11' W 123°52'0 0.1
2017-Sep-12 08:30N 46°11' W 123°52'0 0.0
2017-Sep-12 08:00N 46°11' W 123°52'0 0.0
2017-Sep-12 07:30N 46°11' W 123°52'0 0.1
2017-Sep-12 07:00N 46°11' W 123°52'0 0.1
2017-Sep-12 06:30N 46°11' W 123°52'0 0.0
2017-Sep-12 06:00N 46°11' W 123°52'0 0.0
2017-Sep-12 05:30N 46°11' W 123°52'1 2.9
2017-Sep-12 05:01N 46°11' W 123°54'3 5.4
2017-Sep-12 04:30N 46°13' W 123°57'3 5.8
2017-Sep-12 04:01N 46°15' W 123°60'3 5.8
2017-Sep-12 03:30N 46°16' W 124°04'3 6.3
2017-Sep-12 03:00N 46°17' W 124°08'5 9.8
2017-Sep-12 02:30N 46°21' W 124°13'  

Dump ship's entire track history